sensor_id;sensor_type;location;lat;lon;timestamp;pressure;altitude;pressure_sealevel;temperature
10869;BMP180;62667;48.698;8.762;2022-10-19T00:00:41;96937.00;;;14.30
10869;BMP180;62667;48.698;8.762;2022-10-19T00:03:08;96933.00;;;14.30
10869;BMP180;62667;48.698;8.762;2022-10-19T00:05:34;96930.00;;;14.30
10869;BMP180;62667;48.698;8.762;2022-10-19T00:08:00;96923.00;;;14.30
10869;BMP180;62667;48.698;8.762;2022-10-19T00:10:28;96923.00;;;14.20
10869;BMP180;62667;48.698;8.762;2022-10-19T00:12:54;96924.00;;;14.10
10869;BMP180;62667;48.698;8.762;2022-10-19T00:15:20;96921.00;;;14.20
10869;BMP180;62667;48.698;8.762;2022-10-19T00:17:47;96907.00;;;14.20
10869;BMP180;62667;48.698;8.762;2022-10-19T00:20:14;96917.00;;;14.20
10869;BMP180;62667;48.698;8.762;2022-10-19T00:22:40;96924.00;;;14.30
10869;BMP180;62667;48.698;8.762;2022-10-19T00:25:09;96918.00;;;14.10
10869;BMP180;62667;48.698;8.762;2022-10-19T00:27:35;96916.00;;;14.10
10869;BMP180;62667;48.698;8.762;2022-10-19T00:30:06;96921.00;;;14.10
10869;BMP180;62667;48.698;8.762;2022-10-19T00:32:32;96920.00;;;14.00
10869;BMP180;62667;48.698;8.762;2022-10-19T00:34:59;96918.00;;;14.00
10869;BMP180;62667;48.698;8.762;2022-10-19T00:37:28;96910.00;;;13.90
10869;BMP180;62667;48.698;8.762;2022-10-19T00:39:55;96910.00;;;13.90
10869;BMP180;62667;48.698;8.762;2022-10-19T00:42:21;96916.00;;;13.90
10869;BMP180;62667;48.698;8.762;2022-10-19T00:45:08;96902.00;;;13.80
10869;BMP180;62667;48.698;8.762;2022-10-19T00:47:36;96909.00;;;13.80
10869;BMP180;62667;48.698;8.762;2022-10-19T00:50:08;96911.00;;;13.80
10869;BMP180;62667;48.698;8.762;2022-10-19T00:52:34;96909.00;;;13.80
10869;BMP180;62667;48.698;8.762;2022-10-19T00:55:02;96907.00;;;13.80
10869;BMP180;62667;48.698;8.762;2022-10-19T00:57:31;96907.00;;;13.70
10869;BMP180;62667;48.698;8.762;2022-10-19T01:00:00;96912.00;;;13.60
10869;BMP180;62667;48.698;8.762;2022-10-19T01:02:29;96903.00;;;13.50
10869;BMP180;62667;48.698;8.762;2022-10-19T01:04:59;96894.00;;;13.40
10869;BMP180;62667;48.698;8.762;2022-10-19T01:07:27;96906.00;;;13.30
10869;BMP180;62667;48.698;8.762;2022-10-19T01:09:56;96902.00;;;13.30
10869;BMP180;62667;48.698;8.762;2022-10-19T01:13:10;96899.00;;;13.30
10869;BMP180;62667;48.698;8.762;2022-10-19T01:15:49;96897.00;;;13.30
10869;BMP180;62667;48.698;8.762;2022-10-19T01:18:22;96891.00;;;13.30
10869;BMP180;62667;48.698;8.762;2022-10-19T01:21:17;96896.00;;;13.20
10869;BMP180;62667;48.698;8.762;2022-10-19T01:27:29;96898.00;;;13.00
10869;BMP180;62667;48.698;8.762;2022-10-19T01:30:16;96884.00;;;12.90
10869;BMP180;62667;48.698;8.762;2022-10-19T01:33:11;96888.00;;;12.90
10869;BMP180;62667;48.698;8.762;2022-10-19T01:35:45;96885.00;;;13.00
10869;BMP180;62667;48.698;8.762;2022-10-19T01:38:25;96887.00;;;13.00
10869;BMP180;62667;48.698;8.762;2022-10-19T01:41:06;96886.00;;;13.10
10869;BMP180;62667;48.698;8.762;2022-10-19T01:43:43;96879.00;;;13.10
10869;BMP180;62667;48.698;8.762;2022-10-19T01:46:19;96878.00;;;13.00
10869;BMP180;62667;48.698;8.762;2022-10-19T01:48:54;96860.00;;;13.00
10869;BMP180;62667;48.698;8.762;2022-10-19T01:51:27;96874.00;;;13.00
10869;BMP180;62667;48.698;8.762;2022-10-19T01:54:02;96880.00;;;13.00
10869;BMP180;62667;48.698;8.762;2022-10-19T01:56:32;96867.00;;;13.00
10869;BMP180;62667;48.698;8.762;2022-10-19T01:59:03;96866.00;;;13.00
10869;BMP180;62667;48.698;8.762;2022-10-19T02:01:36;96860.00;;;13.00
10869;BMP180;62667;48.698;8.762;2022-10-19T02:04:04;96853.00;;;13.00
10869;BMP180;62667;48.698;8.762;2022-10-19T02:06:34;96860.00;;;13.00
10869;BMP180;62667;48.698;8.762;2022-10-19T02:09:01;96861.00;;;13.00
10869;BMP180;62667;48.698;8.762;2022-10-19T02:11:28;96854.00;;;13.10
10869;BMP180;62667;48.698;8.762;2022-10-19T02:14:02;96851.00;;;13.10
10869;BMP180;62667;48.698;8.762;2022-10-19T02:16:36;96863.00;;;13.00
10869;BMP180;62667;48.698;8.762;2022-10-19T02:19:06;96856.00;;;13.00
10869;BMP180;62667;48.698;8.762;2022-10-19T02:21:34;96861.00;;;13.00
10869;BMP180;62667;48.698;8.762;2022-10-19T02:24:00;96861.00;;;13.00
10869;BMP180;62667;48.698;8.762;2022-10-19T02:26:27;96859.00;;;13.00
10869;BMP180;62667;48.698;8.762;2022-10-19T02:28:55;96860.00;;;12.90
10869;BMP180;62667;48.698;8.762;2022-10-19T02:31:22;96855.00;;;12.70
10869;BMP180;62667;48.698;8.762;2022-10-19T02:33:50;96867.00;;;12.70
10869;BMP180;62667;48.698;8.762;2022-10-19T02:36:17;96862.00;;;12.50
10869;BMP180;62667;48.698;8.762;2022-10-19T02:38:44;96867.00;;;12.50
10869;BMP180;62667;48.698;8.762;2022-10-19T02:41:17;96869.00;;;12.50
10869;BMP180;62667;48.698;8.762;2022-10-19T02:43:50;96862.00;;;12.40
10869;BMP180;62667;48.698;8.762;2022-10-19T02:46:24;96850.00;;;12.50
10869;BMP180;62667;48.698;8.762;2022-10-19T02:48:56;96858.00;;;12.50
10869;BMP180;62667;48.698;8.762;2022-10-19T02:51:28;96857.00;;;12.50
10869;BMP180;62667;48.698;8.762;2022-10-19T02:53:55;96852.00;;;12.50
10869;BMP180;62667;48.698;8.762;2022-10-19T02:56:21;96853.00;;;12.60
10869;BMP180;62667;48.698;8.762;2022-10-19T02:58:48;96850.00;;;12.60
10869;BMP180;62667;48.698;8.762;2022-10-19T03:01:14;96852.00;;;12.60
10869;BMP180;62667;48.698;8.762;2022-10-19T03:03:43;96847.00;;;12.60
10869;BMP180;62667;48.698;8.762;2022-10-19T03:06:10;96838.00;;;12.60
10869;BMP180;62667;48.698;8.762;2022-10-19T03:08:37;96837.00;;;12.70
10869;BMP180;62667;48.698;8.762;2022-10-19T03:11:04;96842.00;;;12.80
10869;BMP180;62667;48.698;8.762;2022-10-19T03:13:30;96846.00;;;12.80
10869;BMP180;62667;48.698;8.762;2022-10-19T03:15:57;96845.00;;;12.70
10869;BMP180;62667;48.698;8.762;2022-10-19T03:18:23;96838.00;;;12.70
10869;BMP180;62667;48.698;8.762;2022-10-19T03:20:49;96847.00;;;12.60
10869;BMP180;62667;48.698;8.762;2022-10-19T03:23:16;96843.00;;;12.60
10869;BMP180;62667;48.698;8.762;2022-10-19T03:25:43;96836.00;;;12.60
10869;BMP180;62667;48.698;8.762;2022-10-19T03:28:09;96839.00;;;12.70
10869;BMP180;62667;48.698;8.762;2022-10-19T03:30:36;96825.00;;;12.80
10869;BMP180;62667;48.698;8.762;2022-10-19T03:33:02;96832.00;;;12.70
10869;BMP180;62667;48.698;8.762;2022-10-19T03:35:28;96828.00;;;12.70
10869;BMP180;62667;48.698;8.762;2022-10-19T03:37:55;96825.00;;;12.80
10869;BMP180;62667;48.698;8.762;2022-10-19T03:40:22;96823.00;;;12.70
10869;BMP180;62667;48.698;8.762;2022-10-19T03:42:48;96831.00;;;12.80
10869;BMP180;62667;48.698;8.762;2022-10-19T03:45:15;96823.00;;;12.90
10869;BMP180;62667;48.698;8.762;2022-10-19T03:47:41;96831.00;;;12.90
10869;BMP180;62667;48.698;8.762;2022-10-19T03:50:08;96823.00;;;12.90
10869;BMP180;62667;48.698;8.762;2022-10-19T03:52:37;96828.00;;;13.00
10869;BMP180;62667;48.698;8.762;2022-10-19T03:55:05;96825.00;;;13.00
10869;BMP180;62667;48.698;8.762;2022-10-19T03:57:32;96825.00;;;13.00
10869;BMP180;62667;48.698;8.762;2022-10-19T03:59:59;96821.00;;;13.00
10869;BMP180;62667;48.698;8.762;2022-10-19T04:02:25;96819.00;;;13.10
10869;BMP180;62667;48.698;8.762;2022-10-19T04:04:52;96825.00;;;13.10
10869;BMP180;62667;48.698;8.762;2022-10-19T04:07:18;96823.00;;;13.10
10869;BMP180;62667;48.698;8.762;2022-10-19T04:09:44;96811.00;;;13.10
10869;BMP180;62667;48.698;8.762;2022-10-19T04:12:11;96813.00;;;13.10
10869;BMP180;62667;48.698;8.762;2022-10-19T04:14:38;96821.00;;;13.10
10869;BMP180;62667;48.698;8.762;2022-10-19T04:17:04;96823.00;;;13.10
10869;BMP180;62667;48.698;8.762;2022-10-19T04:19:31;96812.00;;;13.00
10869;BMP180;62667;48.698;8.762;2022-10-19T04:21:59;96821.00;;;13.00
10869;BMP180;62667;48.698;8.762;2022-10-19T04:24:28;96830.00;;;12.90
10869;BMP180;62667;48.698;8.762;2022-10-19T04:26:57;96822.00;;;12.90
10869;BMP180;62667;48.698;8.762;2022-10-19T04:29:25;96826.00;;;12.90
10869;BMP180;62667;48.698;8.762;2022-10-19T04:31:52;96830.00;;;13.00
10869;BMP180;62667;48.698;8.762;2022-10-19T04:34:21;96830.00;;;13.00
10869;BMP180;62667;48.698;8.762;2022-10-19T04:36:47;96822.00;;;13.10
10869;BMP180;62667;48.698;8.762;2022-10-19T04:39:13;96818.00;;;13.10
10869;BMP180;62667;48.698;8.762;2022-10-19T04:41:40;96824.00;;;13.10
10869;BMP180;62667;48.698;8.762;2022-10-19T04:44:06;96797.00;;;13.10
10869;BMP180;62667;48.698;8.762;2022-10-19T04:46:33;96815.00;;;13.10
10869;BMP180;62667;48.698;8.762;2022-10-19T04:49:01;96822.00;;;13.10
10869;BMP180;62667;48.698;8.762;2022-10-19T04:51:29;96811.00;;;13.20
10869;BMP180;62667;48.698;8.762;2022-10-19T04:53:55;96817.00;;;13.20
10869;BMP180;62667;48.698;8.762;2022-10-19T04:56:24;96808.00;;;13.20
10869;BMP180;62667;48.698;8.762;2022-10-19T04:58:55;96799.00;;;13.20
10869;BMP180;62667;48.698;8.762;2022-10-19T05:01:24;96816.00;;;13.20
10869;BMP180;62667;48.698;8.762;2022-10-19T05:03:55;96812.00;;;13.20
10869;BMP180;62667;48.698;8.762;2022-10-19T05:06:23;96816.00;;;13.20
10869;BMP180;62667;48.698;8.762;2022-10-19T05:08:50;96811.00;;;13.20
10869;BMP180;62667;48.698;8.762;2022-10-19T05:11:18;96821.00;;;13.30
10869;BMP180;62667;48.698;8.762;2022-10-19T05:13:45;96814.00;;;13.30
10869;BMP180;62667;48.698;8.762;2022-10-19T05:16:14;96813.00;;;13.30
10869;BMP180;62667;48.698;8.762;2022-10-19T05:18:41;96808.00;;;13.30
10869;BMP180;62667;48.698;8.762;2022-10-19T05:21:10;96812.00;;;13.30
10869;BMP180;62667;48.698;8.762;2022-10-19T05:23:40;96808.00;;;13.20
10869;BMP180;62667;48.698;8.762;2022-10-19T05:26:09;96800.00;;;13.20
10869;BMP180;62667;48.698;8.762;2022-10-19T05:28:37;96805.00;;;13.10
10869;BMP180;62667;48.698;8.762;2022-10-19T05:31:09;96801.00;;;13.10
10869;BMP180;62667;48.698;8.762;2022-10-19T05:33:36;96799.00;;;13.10
10869;BMP180;62667;48.698;8.762;2022-10-19T05:36:15;96788.00;;;13.10
10869;BMP180;62667;48.698;8.762;2022-10-19T05:38:44;96782.00;;;13.10
10869;BMP180;62667;48.698;8.762;2022-10-19T05:41:11;96785.00;;;13.20
10869;BMP180;62667;48.698;8.762;2022-10-19T05:43:40;96781.00;;;13.20
10869;BMP180;62667;48.698;8.762;2022-10-19T05:46:08;96783.00;;;13.10
10869;BMP180;62667;48.698;8.762;2022-10-19T05:48:37;96784.00;;;13.00
10869;BMP180;62667;48.698;8.762;2022-10-19T05:51:05;96788.00;;;13.10
10869;BMP180;62667;48.698;8.762;2022-10-19T05:53:33;96792.00;;;13.10
10869;BMP180;62667;48.698;8.762;2022-10-19T05:56:05;96798.00;;;13.20
10869;BMP180;62667;48.698;8.762;2022-10-19T05:58:32;96799.00;;;13.20
10869;BMP180;62667;48.698;8.762;2022-10-19T06:01:00;96775.00;;;13.20
10869;BMP180;62667;48.698;8.762;2022-10-19T06:03:28;96797.00;;;13.20
10869;BMP180;62667;48.698;8.762;2022-10-19T06:05:55;96796.00;;;13.20
10869;BMP180;62667;48.698;8.762;2022-10-19T06:08:24;96798.00;;;13.20
10869;BMP180;62667;48.698;8.762;2022-10-19T06:10:51;96798.00;;;13.20
10869;BMP180;62667;48.698;8.762;2022-10-19T06:13:19;96801.00;;;13.20
10869;BMP180;62667;48.698;8.762;2022-10-19T06:15:50;96804.00;;;13.30
10869;BMP180;62667;48.698;8.762;2022-10-19T06:18:17;96799.00;;;13.30
10869;BMP180;62667;48.698;8.762;2022-10-19T06:20:44;96803.00;;;13.30
10869;BMP180;62667;48.698;8.762;2022-10-19T06:23:10;96795.00;;;13.30
10869;BMP180;62667;48.698;8.762;2022-10-19T06:25:40;96800.00;;;13.30
10869;BMP180;62667;48.698;8.762;2022-10-19T06:28:09;96802.00;;;13.30
10869;BMP180;62667;48.698;8.762;2022-10-19T06:30:38;96809.00;;;13.40
10869;BMP180;62667;48.698;8.762;2022-10-19T06:33:06;96807.00;;;13.40
10869;BMP180;62667;48.698;8.762;2022-10-19T06:35:32;96806.00;;;13.40
10869;BMP180;62667;48.698;8.762;2022-10-19T06:37:59;96806.00;;;13.40
10869;BMP180;62667;48.698;8.762;2022-10-19T06:40:25;96815.00;;;13.50
10869;BMP180;62667;48.698;8.762;2022-10-19T06:42:54;96821.00;;;13.50
10869;BMP180;62667;48.698;8.762;2022-10-19T06:45:20;96819.00;;;13.40
10869;BMP180;62667;48.698;8.762;2022-10-19T06:47:47;96822.00;;;13.60
10869;BMP180;62667;48.698;8.762;2022-10-19T06:50:14;96818.00;;;13.60
10869;BMP180;62667;48.698;8.762;2022-10-19T06:52:40;96818.00;;;13.70
10869;BMP180;62667;48.698;8.762;2022-10-19T06:55:08;96820.00;;;13.70
10869;BMP180;62667;48.698;8.762;2022-10-19T06:57:34;96815.00;;;13.70
10869;BMP180;62667;48.698;8.762;2022-10-19T07:00:01;96823.00;;;13.70
10869;BMP180;62667;48.698;8.762;2022-10-19T07:02:28;96814.00;;;13.70
10869;BMP180;62667;48.698;8.762;2022-10-19T07:04:57;96823.00;;;13.70
10869;BMP180;62667;48.698;8.762;2022-10-19T07:07:24;96822.00;;;13.80
10869;BMP180;62667;48.698;8.762;2022-10-19T07:09:53;96815.00;;;13.80
10869;BMP180;62667;48.698;8.762;2022-10-19T07:12:19;96818.00;;;14.00
10869;BMP180;62667;48.698;8.762;2022-10-19T07:14:46;96816.00;;;14.00
10869;BMP180;62667;48.698;8.762;2022-10-19T07:17:12;96815.00;;;14.00
10869;BMP180;62667;48.698;8.762;2022-10-19T07:19:39;96788.00;;;14.10
10869;BMP180;62667;48.698;8.762;2022-10-19T07:22:06;96824.00;;;14.10
10869;BMP180;62667;48.698;8.762;2022-10-19T07:24:32;96824.00;;;14.10
10869;BMP180;62667;48.698;8.762;2022-10-19T07:26:59;96823.00;;;14.10
10869;BMP180;62667;48.698;8.762;2022-10-19T07:29:25;96819.00;;;14.10
10869;BMP180;62667;48.698;8.762;2022-10-19T07:31:52;96818.00;;;14.00
10869;BMP180;62667;48.698;8.762;2022-10-19T07:34:18;96816.00;;;14.00
10869;BMP180;62667;48.698;8.762;2022-10-19T07:36:46;96816.00;;;14.00
10869;BMP180;62667;48.698;8.762;2022-10-19T07:39:14;96807.00;;;14.10
10869;BMP180;62667;48.698;8.762;2022-10-19T07:41:42;96824.00;;;14.10
10869;BMP180;62667;48.698;8.762;2022-10-19T07:44:08;96829.00;;;14.20
10869;BMP180;62667;48.698;8.762;2022-10-19T07:46:35;96822.00;;;14.20
10869;BMP180;62667;48.698;8.762;2022-10-19T07:49:07;96811.00;;;14.30
10869;BMP180;62667;48.698;8.762;2022-10-19T07:51:38;96803.00;;;14.30
10869;BMP180;62667;48.698;8.762;2022-10-19T07:54:05;96799.00;;;14.30
10869;BMP180;62667;48.698;8.762;2022-10-19T07:56:32;96810.00;;;14.40
10869;BMP180;62667;48.698;8.762;2022-10-19T07:59:02;96812.00;;;14.50
10869;BMP180;62667;48.698;8.762;2022-10-19T08:01:32;96811.00;;;14.60
10869;BMP180;62667;48.698;8.762;2022-10-19T08:04:00;96803.00;;;14.70
10869;BMP180;62667;48.698;8.762;2022-10-19T08:06:29;96818.00;;;14.70
10869;BMP180;62667;48.698;8.762;2022-10-19T08:08:56;96817.00;;;14.80
10869;BMP180;62667;48.698;8.762;2022-10-19T08:11:27;96828.00;;;14.70
10869;BMP180;62667;48.698;8.762;2022-10-19T08:13:55;96785.00;;;14.70
10869;BMP180;62667;48.698;8.762;2022-10-19T08:16:26;96832.00;;;14.80
10869;BMP180;62667;48.698;8.762;2022-10-19T08:18:57;96824.00;;;14.70
10869;BMP180;62667;48.698;8.762;2022-10-19T08:21:24;96818.00;;;14.70
10869;BMP180;62667;48.698;8.762;2022-10-19T08:23:51;96816.00;;;14.70
10869;BMP180;62667;48.698;8.762;2022-10-19T08:26:18;96804.00;;;14.70
10869;BMP180;62667;48.698;8.762;2022-10-19T08:28:44;96821.00;;;14.80
10869;BMP180;62667;48.698;8.762;2022-10-19T08:31:14;96827.00;;;14.80
10869;BMP180;62667;48.698;8.762;2022-10-19T08:33:41;96795.00;;;14.80
10869;BMP180;62667;48.698;8.762;2022-10-19T08:36:09;96811.00;;;14.70
10869;BMP180;62667;48.698;8.762;2022-10-19T08:38:38;96817.00;;;14.80
10869;BMP180;62667;48.698;8.762;2022-10-19T08:41:17;96808.00;;;14.80
10869;BMP180;62667;48.698;8.762;2022-10-19T08:44:06;96819.00;;;14.80
10869;BMP180;62667;48.698;8.762;2022-10-19T08:46:44;96812.00;;;14.90
10869;BMP180;62667;48.698;8.762;2022-10-19T08:49:18;96807.00;;;14.90
10869;BMP180;62667;48.698;8.762;2022-10-19T08:51:50;96812.00;;;14.90
10869;BMP180;62667;48.698;8.762;2022-10-19T08:54:19;96804.00;;;15.00
10869;BMP180;62667;48.698;8.762;2022-10-19T08:56:53;96786.00;;;14.90
10869;BMP180;62667;48.698;8.762;2022-10-19T08:59:36;96795.00;;;14.90
10869;BMP180;62667;48.698;8.762;2022-10-19T09:02:16;96795.00;;;15.00
10869;BMP180;62667;48.698;8.762;2022-10-19T09:04:51;96798.00;;;15.10
10869;BMP180;62667;48.698;8.762;2022-10-19T09:07:24;96789.00;;;15.20
10869;BMP180;62667;48.698;8.762;2022-10-19T09:09:56;96792.00;;;15.20
10869;BMP180;62667;48.698;8.762;2022-10-19T09:12:38;96786.00;;;15.20
10869;BMP180;62667;48.698;8.762;2022-10-19T09:15:12;96787.00;;;15.20
10869;BMP180;62667;48.698;8.762;2022-10-19T09:17:39;96784.00;;;15.30
10869;BMP180;62667;48.698;8.762;2022-10-19T09:20:18;96797.00;;;15.20
10869;BMP180;62667;48.698;8.762;2022-10-19T09:22:50;96789.00;;;15.00
10869;BMP180;62667;48.698;8.762;2022-10-19T09:25:24;96789.00;;;15.00
10869;BMP180;62667;48.698;8.762;2022-10-19T09:28:01;96789.00;;;15.00
10869;BMP180;62667;48.698;8.762;2022-10-19T09:30:36;96791.00;;;15.00
10869;BMP180;62667;48.698;8.762;2022-10-19T09:33:15;96792.00;;;14.90
10869;BMP180;62667;48.698;8.762;2022-10-19T09:35:45;96784.00;;;14.90
10869;BMP180;62667;48.698;8.762;2022-10-19T09:38:14;96792.00;;;15.00
10869;BMP180;62667;48.698;8.762;2022-10-19T09:40:42;96793.00;;;15.00
10869;BMP180;62667;48.698;8.762;2022-10-19T09:43:10;96791.00;;;15.00
10869;BMP180;62667;48.698;8.762;2022-10-19T09:45:51;96796.00;;;14.80
10869;BMP180;62667;48.698;8.762;2022-10-19T09:48:28;96794.00;;;14.90
10869;BMP180;62667;48.698;8.762;2022-10-19T09:51:01;96791.00;;;14.90
10869;BMP180;62667;48.698;8.762;2022-10-19T09:53:30;96789.00;;;14.90
10869;BMP180;62667;48.698;8.762;2022-10-19T09:56:02;96778.00;;;14.90
10869;BMP180;62667;48.698;8.762;2022-10-19T09:58:29;96775.00;;;14.80
10869;BMP180;62667;48.698;8.762;2022-10-19T10:01:00;96783.00;;;14.80
10869;BMP180;62667;48.698;8.762;2022-10-19T10:03:30;96772.00;;;14.80
10869;BMP180;62667;48.698;8.762;2022-10-19T10:06:04;96781.00;;;14.80
10869;BMP180;62667;48.698;8.762;2022-10-19T10:08:36;96786.00;;;14.90
10869;BMP180;62667;48.698;8.762;2022-10-19T10:11:08;96789.00;;;15.00
10869;BMP180;62667;48.698;8.762;2022-10-19T10:13:39;96787.00;;;15.00
10869;BMP180;62667;48.698;8.762;2022-10-19T10:16:10;96771.00;;;15.10
10869;BMP180;62667;48.698;8.762;2022-10-19T10:18:51;96788.00;;;15.00
10869;BMP180;62667;48.698;8.762;2022-10-19T10:21:24;96784.00;;;15.00
10869;BMP180;62667;48.698;8.762;2022-10-19T10:24:00;96787.00;;;15.10
10869;BMP180;62667;48.698;8.762;2022-10-19T10:26:27;96786.00;;;15.00
10869;BMP180;62667;48.698;8.762;2022-10-19T10:28:54;96780.00;;;15.00
10869;BMP180;62667;48.698;8.762;2022-10-19T10:31:24;96772.00;;;15.00
10869;BMP180;62667;48.698;8.762;2022-10-19T10:33:56;96776.00;;;14.80
10869;BMP180;62667;48.698;8.762;2022-10-19T10:36:28;96753.00;;;14.80
10869;BMP180;62667;48.698;8.762;2022-10-19T10:39:04;96770.00;;;14.70
10869;BMP180;62667;48.698;8.762;2022-10-19T10:41:37;96774.00;;;14.60
10869;BMP180;62667;48.698;8.762;2022-10-19T10:44:13;96764.00;;;14.70
10869;BMP180;62667;48.698;8.762;2022-10-19T10:46:51;96756.00;;;14.60
10869;BMP180;62667;48.698;8.762;2022-10-19T10:49:24;96756.00;;;14.70
10869;BMP180;62667;48.698;8.762;2022-10-19T10:51:55;96758.00;;;14.80
10869;BMP180;62667;48.698;8.762;2022-10-19T10:54:25;96754.00;;;14.80
10869;BMP180;62667;48.698;8.762;2022-10-19T10:57:03;96755.00;;;14.90
10869;BMP180;62667;48.698;8.762;2022-10-19T10:59:36;96739.00;;;14.90
10869;BMP180;62667;48.698;8.762;2022-10-19T11:02:23;96755.00;;;14.90
10869;BMP180;62667;48.698;8.762;2022-10-19T11:05:00;96758.00;;;14.90
10869;BMP180;62667;48.698;8.762;2022-10-19T11:07:31;96754.00;;;15.00
10869;BMP180;62667;48.698;8.762;2022-10-19T11:10:05;96755.00;;;14.80
10869;BMP180;62667;48.698;8.762;2022-10-19T11:12:40;96751.00;;;14.80
10869;BMP180;62667;48.698;8.762;2022-10-19T11:15:18;96745.00;;;14.70
10869;BMP180;62667;48.698;8.762;2022-10-19T11:17:59;96746.00;;;14.50
10869;BMP180;62667;48.698;8.762;2022-10-19T11:20:31;96733.00;;;14.60
10869;BMP180;62667;48.698;8.762;2022-10-19T11:23:10;96734.00;;;14.70
10869;BMP180;62667;48.698;8.762;2022-10-19T11:26:05;96740.00;;;14.80
10869;BMP180;62667;48.698;8.762;2022-10-19T11:28:53;96736.00;;;14.70
10869;BMP180;62667;48.698;8.762;2022-10-19T11:31:36;96735.00;;;14.70
10869;BMP180;62667;48.698;8.762;2022-10-19T11:34:15;96728.00;;;14.60
10869;BMP180;62667;48.698;8.762;2022-10-19T11:36:55;96729.00;;;14.60
10869;BMP180;62667;48.698;8.762;2022-10-19T11:39:44;96719.00;;;14.70
10869;BMP180;62667;48.698;8.762;2022-10-19T11:42:26;96719.00;;;14.70
10869;BMP180;62667;48.698;8.762;2022-10-19T11:45:15;96714.00;;;14.80
10869;BMP180;62667;48.698;8.762;2022-10-19T11:48:00;96714.00;;;14.80
10869;BMP180;62667;48.698;8.762;2022-10-19T11:50:42;96705.00;;;14.60
10869;BMP180;62667;48.698;8.762;2022-10-19T11:53:20;96707.00;;;14.60
10869;BMP180;62667;48.698;8.762;2022-10-19T11:56:01;96707.00;;;14.40
10869;BMP180;62667;48.698;8.762;2022-10-19T11:58:43;96701.00;;;14.40
10869;BMP180;62667;48.698;8.762;2022-10-19T12:01:28;96700.00;;;14.40
10869;BMP180;62667;48.698;8.762;2022-10-19T12:04:41;96671.00;;;14.20
10869;BMP180;62667;48.698;8.762;2022-10-19T12:07:39;96702.00;;;14.40
10869;BMP180;62667;48.698;8.762;2022-10-19T12:10:21;96701.00;;;14.40
10869;BMP180;62667;48.698;8.762;2022-10-19T12:12:53;96705.00;;;14.50
10869;BMP180;62667;48.698;8.762;2022-10-19T12:15:28;96687.00;;;14.60
10869;BMP180;62667;48.698;8.762;2022-10-19T12:18:02;96688.00;;;14.60
10869;BMP180;62667;48.698;8.762;2022-10-19T12:20:35;96690.00;;;14.70
10869;BMP180;62667;48.698;8.762;2022-10-19T12:23:20;96693.00;;;14.80
10869;BMP180;62667;48.698;8.762;2022-10-19T12:25:49;96687.00;;;14.90
10869;BMP180;62667;48.698;8.762;2022-10-19T12:28:23;96685.00;;;14.90
10869;BMP180;62667;48.698;8.762;2022-10-19T12:30:52;96686.00;;;15.00
10869;BMP180;62667;48.698;8.762;2022-10-19T12:33:26;96678.00;;;15.00
10869;BMP180;62667;48.698;8.762;2022-10-19T12:36:23;96680.00;;;15.30
10869;BMP180;62667;48.698;8.762;2022-10-19T12:38:59;96673.00;;;15.30
10869;BMP180;62667;48.698;8.762;2022-10-19T12:41:37;96674.00;;;15.30
10869;BMP180;62667;48.698;8.762;2022-10-19T12:44:42;96660.00;;;15.20
10869;BMP180;62667;48.698;8.762;2022-10-19T12:47:18;96657.00;;;15.30
10869;BMP180;62667;48.698;8.762;2022-10-19T12:49:49;96657.00;;;15.40
10869;BMP180;62667;48.698;8.762;2022-10-19T12:52:39;96651.00;;;15.20
10869;BMP180;62667;48.698;8.762;2022-10-19T12:55:25;96650.00;;;15.30
10869;BMP180;62667;48.698;8.762;2022-10-19T12:58:00;96644.00;;;15.30
10869;BMP180;62667;48.698;8.762;2022-10-19T13:00:31;96645.00;;;15.50
10869;BMP180;62667;48.698;8.762;2022-10-19T13:03:04;96634.00;;;15.60
10869;BMP180;62667;48.698;8.762;2022-10-19T13:05:32;96636.00;;;15.60
10869;BMP180;62667;48.698;8.762;2022-10-19T13:08:02;96626.00;;;15.60
10869;BMP180;62667;48.698;8.762;2022-10-19T13:10:30;96625.00;;;15.70
10869;BMP180;62667;48.698;8.762;2022-10-19T13:12:58;96618.00;;;15.70
10869;BMP180;62667;48.698;8.762;2022-10-19T13:15:55;96614.00;;;16.00
10869;BMP180;62667;48.698;8.762;2022-10-19T13:19:03;96614.00;;;16.00
10869;BMP180;62667;48.698;8.762;2022-10-19T13:24:36;96610.00;;;15.70
10869;BMP180;62667;48.698;8.762;2022-10-19T13:27:27;96598.00;;;15.80
10869;BMP180;62667;48.698;8.762;2022-10-19T13:30:04;96598.00;;;15.90
10869;BMP180;62667;48.698;8.762;2022-10-19T13:32:51;96605.00;;;15.70
10869;BMP180;62667;48.698;8.762;2022-10-19T13:35:31;96596.00;;;15.80
10869;BMP180;62667;48.698;8.762;2022-10-19T13:38:23;96585.00;;;15.80
10869;BMP180;62667;48.698;8.762;2022-10-19T13:41:05;96587.00;;;15.80
10869;BMP180;62667;48.698;8.762;2022-10-19T13:43:37;96585.00;;;15.70
10869;BMP180;62667;48.698;8.762;2022-10-19T13:46:11;96584.00;;;15.70
10869;BMP180;62667;48.698;8.762;2022-10-19T13:49:21;96579.00;;;15.70
10869;BMP180;62667;48.698;8.762;2022-10-19T13:52:06;96579.00;;;15.70
10869;BMP180;62667;48.698;8.762;2022-10-19T13:55:20;96576.00;;;15.80
10869;BMP180;62667;48.698;8.762;2022-10-19T13:58:21;96571.00;;;15.90
10869;BMP180;62667;48.698;8.762;2022-10-19T14:01:11;96563.00;;;16.10
10869;BMP180;62667;48.698;8.762;2022-10-19T14:03:58;96570.00;;;16.00
10869;BMP180;62667;48.698;8.762;2022-10-19T14:06:32;96563.00;;;15.80
10869;BMP180;62667;48.698;8.762;2022-10-19T14:09:53;96561.00;;;15.80
10869;BMP180;62667;48.698;8.762;2022-10-19T14:12:27;96556.00;;;15.90
10869;BMP180;62667;48.698;8.762;2022-10-19T14:14:54;96545.00;;;16.00
10869;BMP180;62667;48.698;8.762;2022-10-19T14:17:24;96545.00;;;15.90
10869;BMP180;62667;48.698;8.762;2022-10-19T14:19:54;96544.00;;;15.80
10869;BMP180;62667;48.698;8.762;2022-10-19T14:22:27;96545.00;;;15.90
10869;BMP180;62667;48.698;8.762;2022-10-19T14:25:05;96547.00;;;15.80
10869;BMP180;62667;48.698;8.762;2022-10-19T14:27:34;96552.00;;;15.70
10869;BMP180;62667;48.698;8.762;2022-10-19T14:30:02;96554.00;;;15.70
10869;BMP180;62667;48.698;8.762;2022-10-19T14:32:33;96544.00;;;15.60
10869;BMP180;62667;48.698;8.762;2022-10-19T14:35:04;96536.00;;;15.60
10869;BMP180;62667;48.698;8.762;2022-10-19T14:37:31;96542.00;;;15.50
10869;BMP180;62667;48.698;8.762;2022-10-19T14:40:03;96536.00;;;15.60
10869;BMP180;62667;48.698;8.762;2022-10-19T14:42:39;96543.00;;;15.60
10869;BMP180;62667;48.698;8.762;2022-10-19T14:45:15;96542.00;;;15.50